sensor_id;sensor_type;location;lat;lon;timestamp;P1;durP1;ratioP1;P2;durP2;ratioP2
45328;SDS011;72636;48.160;11.428;2023-11-22T00:00:54;21.25;;;16.38;;
45328;SDS011;72636;48.160;11.428;2023-11-22T00:03:20;21.77;;;15.87;;
45328;SDS011;72636;48.160;11.428;2023-11-22T00:05:46;20.67;;;15.93;;
45328;SDS011;72636;48.160;11.428;2023-11-22T00:08:12;22.75;;;15.70;;
45328;SDS011;72636;48.160;11.428;2023-11-22T00:10:37;28.60;;;17.27;;
45328;SDS011;72636;48.160;11.428;2023-11-22T00:13:04;20.88;;;15.77;;
45328;SDS011;72636;48.160;11.428;2023-11-22T00:15:30;26.63;;;15.85;;
45328;SDS011;72636;48.160;11.428;2023-11-22T00:17:56;21.67;;;15.53;;
45328;SDS011;72636;48.160;11.428;2023-11-22T00:20:23;24.10;;;16.23;;
45328;SDS011;72636;48.160;11.428;2023-11-22T00:22:48;23.80;;;16.52;;
45328;SDS011;72636;48.160;11.428;2023-11-22T00:25:15;21.67;;;15.90;;
45328;SDS011;72636;48.160;11.428;2023-11-22T00:27:40;21.05;;;15.35;;
45328;SDS011;72636;48.160;11.428;2023-11-22T00:30:07;27.67;;;18.30;;
45328;SDS011;72636;48.160;11.428;2023-11-22T00:32:33;25.42;;;16.30;;
45328;SDS011;72636;48.160;11.428;2023-11-22T00:34:59;23.35;;;15.90;;
45328;SDS011;72636;48.160;11.428;2023-11-22T00:37:25;23.43;;;16.27;;
45328;SDS011;72636;48.160;11.428;2023-11-22T00:39:50;25.27;;;15.20;;
45328;SDS011;72636;48.160;11.428;2023-11-22T00:42:16;23.67;;;16.63;;
45328;SDS011;72636;48.160;11.428;2023-11-22T00:44:45;21.92;;;15.95;;
45328;SDS011;72636;48.160;11.428;2023-11-22T00:47:11;21.50;;;16.50;;
45328;SDS011;72636;48.160;11.428;2023-11-22T00:49:36;26.37;;;17.50;;
45328;SDS011;72636;48.160;11.428;2023-11-22T00:52:02;25.40;;;17.60;;
45328;SDS011;72636;48.160;11.428;2023-11-22T00:54:28;25.77;;;17.47;;
45328;SDS011;72636;48.160;11.428;2023-11-22T00:56:53;26.10;;;17.50;;
45328;SDS011;72636;48.160;11.428;2023-11-22T00:59:19;25.70;;;18.27;;
45328;SDS011;72636;48.160;11.428;2023-11-22T01:01:45;27.90;;;17.60;;
45328;SDS011;72636;48.160;11.428;2023-11-22T01:04:10;25.57;;;17.63;;
45328;SDS011;72636;48.160;11.428;2023-11-22T01:06:36;29.40;;;18.33;;
45328;SDS011;72636;48.160;11.428;2023-11-22T01:09:03;30.65;;;20.20;;
45328;SDS011;72636;48.160;11.428;2023-11-22T01:11:29;29.33;;;19.97;;
45328;SDS011;72636;48.160;11.428;2023-11-22T01:13:54;30.30;;;19.10;;
45328;SDS011;72636;48.160;11.428;2023-11-22T01:16:20;26.03;;;18.47;;
45328;SDS011;72636;48.160;11.428;2023-11-22T01:18:46;24.58;;;18.58;;
45328;SDS011;72636;48.160;11.428;2023-11-22T01:21:12;26.70;;;18.37;;
45328;SDS011;72636;48.160;11.428;2023-11-22T01:23:38;26.10;;;18.23;;
45328;SDS011;72636;48.160;11.428;2023-11-22T01:26:03;28.20;;;18.83;;
45328;SDS011;72636;48.160;11.428;2023-11-22T01:28:30;28.50;;;18.83;;
45328;SDS011;72636;48.160;11.428;2023-11-22T01:30:59;28.27;;;18.77;;
45328;SDS011;72636;48.160;11.428;2023-11-22T01:33:28;29.35;;;19.42;;
45328;SDS011;72636;48.160;11.428;2023-11-22T01:35:54;27.37;;;18.63;;
45328;SDS011;72636;48.160;11.428;2023-11-22T01:38:20;29.27;;;20.37;;
45328;SDS011;72636;48.160;11.428;2023-11-22T01:40:46;29.80;;;19.53;;
45328;SDS011;72636;48.160;11.428;2023-11-22T01:43:16;31.08;;;19.88;;
45328;SDS011;72636;48.160;11.428;2023-11-22T01:45:43;33.47;;;20.45;;
45328;SDS011;72636;48.160;11.428;2023-11-22T01:48:09;30.27;;;20.13;;
45328;SDS011;72636;48.160;11.428;2023-11-22T01:50:36;29.60;;;20.00;;
45328;SDS011;72636;48.160;11.428;2023-11-22T01:53:07;33.63;;;21.05;;
45328;SDS011;72636;48.160;11.428;2023-11-22T01:55:35;32.95;;;21.48;;
45328;SDS011;72636;48.160;11.428;2023-11-22T01:58:01;27.70;;;20.25;;
45328;SDS011;72636;48.160;11.428;2023-11-22T02:00:29;29.05;;;20.23;;
45328;SDS011;72636;48.160;11.428;2023-11-22T02:03:00;26.42;;;18.73;;
45328;SDS011;72636;48.160;11.428;2023-11-22T02:05:26;27.45;;;19.00;;
45328;SDS011;72636;48.160;11.428;2023-11-22T02:07:52;28.87;;;19.73;;
45328;SDS011;72636;48.160;11.428;2023-11-22T02:10:18;34.13;;;21.50;;
45328;SDS011;72636;48.160;11.428;2023-11-22T02:12:44;23.37;;;16.63;;
45328;SDS011;72636;48.160;11.428;2023-11-22T02:15:09;17.27;;;12.07;;
45328;SDS011;72636;48.160;11.428;2023-11-22T02:17:35;11.75;;;9.25;;
45328;SDS011;72636;48.160;11.428;2023-11-22T02:20:01;11.60;;;8.88;;
45328;SDS011;72636;48.160;11.428;2023-11-22T02:22:31;10.73;;;9.43;;
45328;SDS011;72636;48.160;11.428;2023-11-22T02:24:57;9.00;;;8.00;;
45328;SDS011;72636;48.160;11.428;2023-11-22T02:27:22;9.57;;;7.67;;
45328;SDS011;72636;48.160;11.428;2023-11-22T02:29:48;9.18;;;6.65;;
45328;SDS011;72636;48.160;11.428;2023-11-22T02:34:40;6.85;;;6.22;;
45328;SDS011;72636;48.160;11.428;2023-11-22T02:37:06;6.27;;;5.67;;
45328;SDS011;72636;48.160;11.428;2023-11-22T02:39:38;7.10;;;5.85;;
45328;SDS011;72636;48.160;11.428;2023-11-22T02:42:14;6.55;;;5.75;;
45328;SDS011;72636;48.160;11.428;2023-11-22T02:44:40;5.87;;;4.90;;
45328;SDS011;72636;48.160;11.428;2023-11-22T02:47:06;6.30;;;4.03;;
45328;SDS011;72636;48.160;11.428;2023-11-22T02:49:32;4.33;;;3.80;;
45328;SDS011;72636;48.160;11.428;2023-11-22T02:51:57;4.53;;;3.80;;
45328;SDS011;72636;48.160;11.428;2023-11-22T02:54:23;5.50;;;4.17;;
45328;SDS011;72636;48.160;11.428;2023-11-22T02:56:48;4.17;;;3.77;;
45328;SDS011;72636;48.160;11.428;2023-11-22T02:59:14;4.40;;;3.90;;
45328;SDS011;72636;48.160;11.428;2023-11-22T03:04:07;4.85;;;3.45;;
45328;SDS011;72636;48.160;11.428;2023-11-22T03:06:34;3.78;;;3.38;;
45328;SDS011;72636;48.160;11.428;2023-11-22T03:08:59;4.20;;;3.30;;
45328;SDS011;72636;48.160;11.428;2023-11-22T03:11:25;3.87;;;3.47;;
45328;SDS011;72636;48.160;11.428;2023-11-22T03:13:52;4.60;;;2.95;;
45328;SDS011;72636;48.160;11.428;2023-11-22T03:16:18;3.80;;;3.17;;
45328;SDS011;72636;48.160;11.428;2023-11-22T03:18:43;3.87;;;3.33;;
45328;SDS011;72636;48.160;11.428;2023-11-22T03:21:09;3.57;;;3.23;;
45328;SDS011;72636;48.160;11.428;2023-11-22T03:23:35;6.20;;;3.80;;
45328;SDS011;72636;48.160;11.428;2023-11-22T03:26:00;4.33;;;3.73;;
45328;SDS011;72636;48.160;11.428;2023-11-22T03:28:26;4.53;;;3.63;;
45328;SDS011;72636;48.160;11.428;2023-11-22T03:30:55;5.18;;;4.25;;
45328;SDS011;72636;48.160;11.428;2023-11-22T03:33:20;4.87;;;4.17;;
45328;SDS011;72636;48.160;11.428;2023-11-22T03:35:46;5.33;;;4.20;;
45328;SDS011;72636;48.160;11.428;2023-11-22T03:38:12;5.27;;;4.40;;
45328;SDS011;72636;48.160;11.428;2023-11-22T03:40:37;6.73;;;4.47;;
45328;SDS011;72636;48.160;11.428;2023-11-22T03:43:03;5.67;;;4.53;;
45328;SDS011;72636;48.160;11.428;2023-11-22T03:45:28;5.83;;;4.80;;
45328;SDS011;72636;48.160;11.428;2023-11-22T03:47:54;7.73;;;5.00;;
45328;SDS011;72636;48.160;11.428;2023-11-22T03:50:19;5.43;;;4.80;;
45328;SDS011;72636;48.160;11.428;2023-11-22T03:52:45;5.23;;;4.73;;
45328;SDS011;72636;48.160;11.428;2023-11-22T03:55:11;7.32;;;4.93;;
45328;SDS011;72636;48.160;11.428;2023-11-22T03:57:37;5.73;;;4.83;;
45328;SDS011;72636;48.160;11.428;2023-11-22T04:00:03;6.27;;;4.90;;
45328;SDS011;72636;48.160;11.428;2023-11-22T04:02:31;6.82;;;5.18;;
45328;SDS011;72636;48.160;11.428;2023-11-22T04:04:57;6.40;;;5.20;;
45328;SDS011;72636;48.160;11.428;2023-11-22T04:07:22;6.00;;;5.07;;
45328;SDS011;72636;48.160;11.428;2023-11-22T04:09:48;6.47;;;5.40;;
45328;SDS011;72636;48.160;11.428;2023-11-22T04:12:14;6.28;;;4.85;;
45328;SDS011;72636;48.160;11.428;2023-11-22T04:14:39;5.00;;;4.47;;
45328;SDS011;72636;48.160;11.428;2023-11-22T04:17:05;5.07;;;4.30;;
45328;SDS011;72636;48.160;11.428;2023-11-22T04:19:31;4.93;;;4.10;;
45328;SDS011;72636;48.160;11.428;2023-11-22T04:21:56;4.27;;;3.67;;
45328;SDS011;72636;48.160;11.428;2023-11-22T04:24:22;4.20;;;3.50;;
45328;SDS011;72636;48.160;11.428;2023-11-22T04:26:48;4.47;;;3.60;;
45328;SDS011;72636;48.160;11.428;2023-11-22T04:29:13;3.97;;;3.53;;
45328;SDS011;72636;48.160;11.428;2023-11-22T04:31:39;4.40;;;3.80;;
45328;SDS011;72636;48.160;11.428;2023-11-22T04:34:05;3.57;;;3.27;;
45328;SDS011;72636;48.160;11.428;2023-11-22T04:36:30;4.85;;;4.00;;
45328;SDS011;72636;48.160;11.428;2023-11-22T04:38:57;5.22;;;3.80;;
45328;SDS011;72636;48.160;11.428;2023-11-22T04:41:22;3.87;;;3.40;;
45328;SDS011;72636;48.160;11.428;2023-11-22T04:43:50;4.53;;;3.60;;
45328;SDS011;72636;48.160;11.428;2023-11-22T04:46:15;5.07;;;4.20;;
45328;SDS011;72636;48.160;11.428;2023-11-22T04:48:41;7.60;;;4.27;;
45328;SDS011;72636;48.160;11.428;2023-11-22T04:51:09;6.75;;;4.47;;
45328;SDS011;72636;48.160;11.428;2023-11-22T04:53:35;4.22;;;3.50;;
45328;SDS011;72636;48.160;11.428;2023-11-22T04:56:01;6.57;;;3.77;;
45328;SDS011;72636;48.160;11.428;2023-11-22T04:58:30;4.32;;;3.50;;
45328;SDS011;72636;48.160;11.428;2023-11-22T05:03:22;5.75;;;3.83;;
45328;SDS011;72636;48.160;11.428;2023-11-22T05:05:48;4.95;;;3.95;;
45328;SDS011;72636;48.160;11.428;2023-11-22T05:08:14;5.90;;;4.10;;
45328;SDS011;72636;48.160;11.428;2023-11-22T05:10:40;6.57;;;3.77;;
45328;SDS011;72636;48.160;11.428;2023-11-22T05:13:06;5.25;;;3.83;;
45328;SDS011;72636;48.160;11.428;2023-11-22T05:15:31;3.70;;;3.30;;
45328;SDS011;72636;48.160;11.428;2023-11-22T05:17:57;4.47;;;3.50;;
45328;SDS011;72636;48.160;11.428;2023-11-22T05:20:23;9.33;;;3.80;;
45328;SDS011;72636;48.160;11.428;2023-11-22T05:22:48;3.27;;;2.97;;
45328;SDS011;72636;48.160;11.428;2023-11-22T05:25:14;4.50;;;3.53;;
45328;SDS011;72636;48.160;11.428;2023-11-22T05:27:39;3.90;;;3.33;;
45328;SDS011;72636;48.160;11.428;2023-11-22T05:30:05;4.57;;;3.30;;
45328;SDS011;72636;48.160;11.428;2023-11-22T05:32:31;3.30;;;3.00;;
45328;SDS011;72636;48.160;11.428;2023-11-22T05:34:57;3.77;;;2.97;;
45328;SDS011;72636;48.160;11.428;2023-11-22T05:37:22;3.97;;;3.40;;
45328;SDS011;72636;48.160;11.428;2023-11-22T05:39:48;7.28;;;5.30;;
45328;SDS011;72636;48.160;11.428;2023-11-22T05:42:14;8.50;;;4.80;;
45328;SDS011;72636;48.160;11.428;2023-11-22T05:44:40;7.37;;;4.70;;
45328;SDS011;72636;48.160;11.428;2023-11-22T05:47:05;5.30;;;4.10;;
45328;SDS011;72636;48.160;11.428;2023-11-22T05:49:32;5.88;;;4.32;;
45328;SDS011;72636;48.160;11.428;2023-11-22T05:51:59;5.47;;;4.07;;
45328;SDS011;72636;48.160;11.428;2023-11-22T05:54:24;5.53;;;3.50;;
45328;SDS011;72636;48.160;11.428;2023-11-22T05:56:50;4.40;;;4.00;;
45328;SDS011;72636;48.160;11.428;2023-11-22T05:59:15;4.33;;;3.67;;
45328;SDS011;72636;48.160;11.428;2023-11-22T06:01:41;3.83;;;3.30;;
45328;SDS011;72636;48.160;11.428;2023-11-22T06:04:07;4.35;;;3.40;;
45328;SDS011;72636;48.160;11.428;2023-11-22T06:06:34;5.30;;;3.28;;
45328;SDS011;72636;48.160;11.428;2023-11-22T06:09:00;4.63;;;3.90;;
45328;SDS011;72636;48.160;11.428;2023-11-22T06:11:26;4.47;;;3.80;;
45328;SDS011;72636;48.160;11.428;2023-11-22T06:13:52;4.77;;;4.10;;
45328;SDS011;72636;48.160;11.428;2023-11-22T06:16:17;4.50;;;3.83;;
45328;SDS011;72636;48.160;11.428;2023-11-22T06:18:43;3.97;;;3.53;;
45328;SDS011;72636;48.160;11.428;2023-11-22T06:21:09;5.50;;;4.22;;
45328;SDS011;72636;48.160;11.428;2023-11-22T06:23:35;7.18;;;4.63;;
45328;SDS011;72636;48.160;11.428;2023-11-22T06:26:01;5.93;;;4.23;;
45328;SDS011;72636;48.160;11.428;2023-11-22T06:28:27;7.78;;;4.55;;
45328;SDS011;72636;48.160;11.428;2023-11-22T06:30:53;5.65;;;4.55;;
45328;SDS011;72636;48.160;11.428;2023-11-22T06:33:19;7.53;;;5.10;;
45328;SDS011;72636;48.160;11.428;2023-11-22T06:35:45;6.30;;;4.57;;
45328;SDS011;72636;48.160;11.428;2023-11-22T06:38:10;5.70;;;5.10;;
45328;SDS011;72636;48.160;11.428;2023-11-22T06:40:36;6.93;;;4.73;;
45328;SDS011;72636;48.160;11.428;2023-11-22T06:43:02;6.37;;;4.10;;
45328;SDS011;72636;48.160;11.428;2023-11-22T06:45:29;6.28;;;4.45;;
45328;SDS011;72636;48.160;11.428;2023-11-22T06:47:56;5.47;;;4.25;;
45328;SDS011;72636;48.160;11.428;2023-11-22T06:50:23;6.30;;;4.95;;
45328;SDS011;72636;48.160;11.428;2023-11-22T06:52:49;5.70;;;4.43;;
45328;SDS011;72636;48.160;11.428;2023-11-22T06:55:15;5.43;;;4.50;;
45328;SDS011;72636;48.160;11.428;2023-11-22T06:57:41;4.70;;;4.07;;
45328;SDS011;72636;48.160;11.428;2023-11-22T07:00:06;4.20;;;3.77;;
45328;SDS011;72636;48.160;11.428;2023-11-22T07:02:34;4.45;;;3.90;;
45328;SDS011;72636;48.160;11.428;2023-11-22T07:05:03;5.35;;;4.18;;
45328;SDS011;72636;48.160;11.428;2023-11-22T07:07:33;4.28;;;3.85;;
45328;SDS011;72636;48.160;11.428;2023-11-22T07:09:59;5.80;;;4.25;;
45328;SDS011;72636;48.160;11.428;2023-11-22T07:12:25;4.37;;;3.73;;
45328;SDS011;72636;48.160;11.428;2023-11-22T07:14:51;6.47;;;4.53;;
45328;SDS011;72636;48.160;11.428;2023-11-22T07:17:17;5.00;;;4.50;;
45328;SDS011;72636;48.160;11.428;2023-11-22T07:19:43;7.07;;;4.93;;
45328;SDS011;72636;48.160;11.428;2023-11-22T07:22:14;5.18;;;4.68;;
45328;SDS011;72636;48.160;11.428;2023-11-22T07:24:47;5.78;;;5.05;;
45328;SDS011;72636;48.160;11.428;2023-11-22T07:27:16;6.13;;;5.53;;
45328;SDS011;72636;48.160;11.428;2023-11-22T07:29:43;6.28;;;5.15;;
45328;SDS011;72636;48.160;11.428;2023-11-22T07:32:10;9.05;;;5.75;;
45328;SDS011;72636;48.160;11.428;2023-11-22T07:34:36;6.47;;;5.40;;
45328;SDS011;72636;48.160;11.428;2023-11-22T07:37:04;9.10;;;5.85;;
45328;SDS011;72636;48.160;11.428;2023-11-22T07:39:32;7.60;;;5.45;;
45328;SDS011;72636;48.160;11.428;2023-11-22T07:42:00;8.00;;;5.40;;
45328;SDS011;72636;48.160;11.428;2023-11-22T07:44:26;7.85;;;5.25;;
45328;SDS011;72636;48.160;11.428;2023-11-22T07:46:52;6.78;;;5.28;;
45328;SDS011;72636;48.160;11.428;2023-11-22T07:49:19;7.30;;;5.63;;
45328;SDS011;72636;48.160;11.428;2023-11-22T07:51:46;8.38;;;5.88;;
45328;SDS011;72636;48.160;11.428;2023-11-22T07:54:12;6.67;;;5.37;;
45328;SDS011;72636;48.160;11.428;2023-11-22T07:56:43;7.88;;;5.82;;
45328;SDS011;72636;48.160;11.428;2023-11-22T07:59:11;7.57;;;5.65;;
45328;SDS011;72636;48.160;11.428;2023-11-22T08:01:39;10.60;;;6.60;;
45328;SDS011;72636;48.160;11.428;2023-11-22T08:04:08;11.45;;;6.07;;
45328;SDS011;72636;48.160;11.428;2023-11-22T08:06:34;9.52;;;6.35;;
45328;SDS011;72636;48.160;11.428;2023-11-22T08:09:00;8.40;;;6.47;;
45328;SDS011;72636;48.160;11.428;2023-11-22T08:11:30;8.40;;;6.50;;
45328;SDS011;72636;48.160;11.428;2023-11-22T08:16:25;7.90;;;5.88;;
45328;SDS011;72636;48.160;11.428;2023-11-22T08:21:17;9.30;;;7.20;;
45328;SDS011;72636;48.160;11.428;2023-11-22T08:23:43;8.90;;;6.60;;
45328;SDS011;72636;48.160;11.428;2023-11-22T08:26:11;8.82;;;7.10;;
45328;SDS011;72636;48.160;11.428;2023-11-22T08:28:37;8.10;;;6.70;;
45328;SDS011;72636;48.160;11.428;2023-11-22T08:31:03;7.95;;;6.75;;
45328;SDS011;72636;48.160;11.428;2023-11-22T08:33:35;8.75;;;6.30;;
45328;SDS011;72636;48.160;11.428;2023-11-22T08:36:05;10.55;;;6.90;;
45328;SDS011;72636;48.160;11.428;2023-11-22T08:38:31;11.00;;;6.82;;
45328;SDS011;72636;48.160;11.428;2023-11-22T08:41:03;9.43;;;6.38;;
45328;SDS011;72636;48.160;11.428;2023-11-22T08:43:33;9.57;;;6.22;;
45328;SDS011;72636;48.160;11.428;2023-11-22T08:45:59;7.68;;;5.47;;
45328;SDS011;72636;48.160;11.428;2023-11-22T08:48:25;7.55;;;6.03;;
45328;SDS011;72636;48.160;11.428;2023-11-22T08:50:51;8.77;;;6.13;;
45328;SDS011;72636;48.160;11.428;2023-11-22T08:53:18;6.20;;;5.60;;
45328;SDS011;72636;48.160;11.428;2023-11-22T08:55:44;6.45;;;5.63;;
45328;SDS011;72636;48.160;11.428;2023-11-22T08:58:11;7.30;;;5.22;;
45328;SDS011;72636;48.160;11.428;2023-11-22T09:00:36;8.73;;;5.33;;
45328;SDS011;72636;48.160;11.428;2023-11-22T09:03:02;5.80;;;5.07;;
45328;SDS011;72636;48.160;11.428;2023-11-22T09:05:30;6.80;;;5.30;;
45328;SDS011;72636;48.160;11.428;2023-11-22T09:07:56;6.10;;;5.40;;
45328;SDS011;72636;48.160;11.428;2023-11-22T09:10:23;8.30;;;5.78;;
45328;SDS011;72636;48.160;11.428;2023-11-22T09:12:49;7.28;;;5.75;;
45328;SDS011;72636;48.160;11.428;2023-11-22T09:15:16;8.27;;;6.05;;
45328;SDS011;72636;48.160;11.428;2023-11-22T09:17:44;7.00;;;5.50;;
45328;SDS011;72636;48.160;11.428;2023-11-22T09:20:14;6.60;;;5.10;;
45328;SDS011;72636;48.160;11.428;2023-11-22T09:22:47;8.93;;;5.57;;
45328;SDS011;72636;48.160;11.428;2023-11-22T09:25:15;9.52;;;5.28;;
45328;SDS011;72636;48.160;11.428;2023-11-22T09:27:49;6.72;;;5.57;;
45328;SDS011;72636;48.160;11.428;2023-11-22T09:30:24;7.43;;;5.57;;
45328;SDS011;72636;48.160;11.428;2023-11-22T09:33:04;6.72;;;5.50;;
45328;SDS011;72636;48.160;11.428;2023-11-22T09:35:32;6.78;;;5.90;;
45328;SDS011;72636;48.160;11.428;2023-11-22T09:37:59;6.93;;;5.60;;
45328;SDS011;72636;48.160;11.428;2023-11-22T09:42:52;6.33;;;5.43;;
45328;SDS011;72636;48.160;11.428;2023-11-22T09:45:19;7.93;;;6.00;;
45328;SDS011;72636;48.160;11.428;2023-11-22T09:47:45;8.05;;;5.75;;
45328;SDS011;72636;48.160;11.428;2023-11-22T09:50:17;6.25;;;5.35;;
45328;SDS011;72636;48.160;11.428;2023-11-22T09:53:19;6.55;;;5.20;;
45328;SDS011;72636;48.160;11.428;2023-11-22T09:55:55;6.88;;;5.30;;
45328;SDS011;72636;48.160;11.428;2023-11-22T09:58:22;5.55;;;4.97;;
45328;SDS011;72636;48.160;11.428;2023-11-22T10:00:50;6.40;;;4.78;;
45328;SDS011;72636;48.160;11.428;2023-11-22T10:05:43;8.93;;;6.05;;
45328;SDS011;72636;48.160;11.428;2023-11-22T10:08:09;8.05;;;6.10;;
45328;SDS011;72636;48.160;11.428;2023-11-22T10:10:36;6.45;;;5.18;;
45328;SDS011;72636;48.160;11.428;2023-11-22T10:13:02;6.50;;;5.35;;
45328;SDS011;72636;48.160;11.428;2023-11-22T10:15:28;6.95;;;5.28;;
45328;SDS011;72636;48.160;11.428;2023-11-22T10:17:55;6.50;;;4.90;;
45328;SDS011;72636;48.160;11.428;2023-11-22T10:20:25;5.53;;;4.50;;
45328;SDS011;72636;48.160;11.428;2023-11-22T10:23:01;6.50;;;4.95;;
45328;SDS011;72636;48.160;11.428;2023-11-22T10:25:27;6.87;;;5.27;;
45328;SDS011;72636;48.160;11.428;2023-11-22T10:27:54;7.45;;;4.97;;
45328;SDS011;72636;48.160;11.428;2023-11-22T10:30:20;6.15;;;5.30;;
45328;SDS011;72636;48.160;11.428;2023-11-22T10:32:47;6.27;;;4.37;;
45328;SDS011;72636;48.160;11.428;2023-11-22T10:35:12;6.07;;;5.20;;
45328;SDS011;72636;48.160;11.428;2023-11-22T10:37:42;5.63;;;5.03;;
45328;SDS011;72636;48.160;11.428;2023-11-22T10:40:11;5.95;;;4.57;;
45328;SDS011;72636;48.160;11.428;2023-11-22T10:42:41;5.78;;;5.03;;
45328;SDS011;72636;48.160;11.428;2023-11-22T10:45:10;7.55;;;4.85;;
45328;SDS011;72636;48.160;11.428;2023-11-22T10:47:38;5.78;;;4.47;;
45328;SDS011;72636;48.160;11.428;2023-11-22T10:50:06;6.60;;;4.93;;
45328;SDS011;72636;48.160;11.428;2023-11-22T10:52:33;5.10;;;4.60;;
45328;SDS011;72636;48.160;11.428;2023-11-22T10:55:04;6.35;;;4.78;;
45328;SDS011;72636;48.160;11.428;2023-11-22T10:57:36;11.77;;;5.25;;
45328;SDS011;72636;48.160;11.428;2023-11-22T11:00:07;5.18;;;4.30;;
45328;SDS011;72636;48.160;11.428;2023-11-22T11:02:37;6.35;;;4.22;;
45328;SDS011;72636;48.160;11.428;2023-11-22T11:05:10;7.75;;;4.75;;
45328;SDS011;72636;48.160;11.428;2023-11-22T11:07:42;6.05;;;4.40;;
45328;SDS011;72636;48.160;11.428;2023-11-22T11:10:14;5.80;;;4.85;;
45328;SDS011;72636;48.160;11.428;2023-11-22T11:12:40;5.43;;;4.13;;
45328;SDS011;72636;48.160;11.428;2023-11-22T11:15:07;5.55;;;4.95;;
45328;SDS011;72636;48.160;11.428;2023-11-22T11:17:34;6.47;;;4.75;;
45328;SDS011;72636;48.160;11.428;2023-11-22T11:20:03;6.80;;;4.40;;
45328;SDS011;72636;48.160;11.428;2023-11-22T11:22:31;7.15;;;5.00;;
45328;SDS011;72636;48.160;11.428;2023-11-22T11:25:04;5.75;;;5.03;;
45328;SDS011;72636;48.160;11.428;2023-11-22T11:27:32;6.40;;;5.03;;
45328;SDS011;72636;48.160;11.428;2023-11-22T11:30:00;5.50;;;4.88;;
45328;SDS011;72636;48.160;11.428;2023-11-22T11:32:46;6.28;;;4.88;;
45328;SDS011;72636;48.160;11.428;2023-11-22T11:35:12;5.27;;;4.77;;
45328;SDS011;72636;48.160;11.428;2023-11-22T11:37:37;5.77;;;4.83;;
45328;SDS011;72636;48.160;11.428;2023-11-22T11:42:51;5.85;;;5.10;;
45328;SDS011;72636;48.160;11.428;2023-11-22T11:45:18;5.78;;;5.18;;
45328;SDS011;72636;48.160;11.428;2023-11-22T11:47:45;5.18;;;4.43;;
45328;SDS011;72636;48.160;11.428;2023-11-22T11:50:11;5.78;;;5.18;;
45328;SDS011;72636;48.160;11.428;2023-11-22T11:52:38;6.30;;;4.83;;
45328;SDS011;72636;48.160;11.428;2023-11-22T11:57:30;6.13;;;4.63;;
45328;SDS011;72636;48.160;11.428;2023-11-22T11:59:57;5.55;;;4.88;;
45328;SDS011;72636;48.160;11.428;2023-11-22T12:02:24;4.95;;;4.20;;
45328;SDS011;72636;48.160;11.428;2023-11-22T12:04:49;6.27;;;4.37;;
45328;SDS011;72636;48.160;11.428;2023-11-22T12:07:15;6.00;;;4.63;;
45328;SDS011;72636;48.160;11.428;2023-11-22T12:09:41;5.53;;;4.77;;
45328;SDS011;72636;48.160;11.428;2023-11-22T12:12:06;7.03;;;4.63;;
45328;SDS011;72636;48.160;11.428;2023-11-22T12:14:32;7.90;;;4.77;;
45328;SDS011;72636;48.160;11.428;2023-11-22T12:16:58;6.47;;;4.50;;
45328;SDS011;72636;48.160;11.428;2023-11-22T12:19:24;6.25;;;5.00;;
45328;SDS011;72636;48.160;11.428;2023-11-22T12:21:58;6.45;;;5.35;;
45328;SDS011;72636;48.160;11.428;2023-11-22T12:24:24;8.80;;;5.28;;
45328;SDS011;72636;48.160;11.428;2023-11-22T12:26:50;8.03;;;6.13;;
45328;SDS011;72636;48.160;11.428;2023-11-22T12:29:18;7.20;;;5.32;;
45328;SDS011;72636;48.160;11.428;2023-11-22T12:31:45;6.15;;;5.18;;
45328;SDS011;72636;48.160;11.428;2023-11-22T12:34:12;7.88;;;5.28;;
45328;SDS011;72636;48.160;11.428;2023-11-22T12:36:40;10.75;;;5.65;;
45328;SDS011;72636;48.160;11.428;2023-11-22T12:39:09;6.47;;;5.32;;
45328;SDS011;72636;48.160;11.428;2023-11-22T12:41:49;6.18;;;4.60;;
45328;SDS011;72636;48.160;11.428;2023-11-22T12:44:16;5.25;;;4.75;;
45328;SDS011;72636;48.160;11.428;2023-11-22T12:46:49;7.53;;;4.30;;
45328;SDS011;72636;48.160;11.428;2023-11-22T12:49:35;5.82;;;4.72;;
45328;SDS011;72636;48.160;11.428;2023-11-22T12:52:11;6.72;;;4.80;;
45328;SDS011;72636;48.160;11.428;2023-11-22T12:54:37;7.73;;;5.00;;
45328;SDS011;72636;48.160;11.428;2023-11-22T12:57:03;6.47;;;4.82;;
45328;SDS011;72636;48.160;11.428;2023-11-22T12:59:35;5.93;;;4.65;;
45328;SDS011;72636;48.160;11.428;2023-11-22T13:02:00;6.43;;;4.73;;
45328;SDS011;72636;48.160;11.428;2023-11-22T13:04:27;9.50;;;4.50;;
45328;SDS011;72636;48.160;11.428;2023-11-22T13:06:54;5.03;;;4.32;;
45328;SDS011;72636;48.160;11.428;2023-11-22T13:09:20;9.07;;;5.23;;
45328;SDS011;72636;48.160;11.428;2023-11-22T13:11:46;7.73;;;5.20;;
45328;SDS011;72636;48.160;11.428;2023-11-22T13:14:12;6.75;;;5.03;;
45328;SDS011;72636;48.160;11.428;2023-11-22T13:16:41;8.38;;;4.80;;
45328;SDS011;72636;48.160;11.428;2023-11-22T13:19:07;6.80;;;4.63;;
45328;SDS011;72636;48.160;11.428;2023-11-22T13:21:34;6.40;;;4.72;;
45328;SDS011;72636;48.160;11.428;2023-11-22T13:24:00;8.45;;;5.20;;
45328;SDS011;72636;48.160;11.428;2023-11-22T13:26:26;6.10;;;4.97;;
45328;SDS011;72636;48.160;11.428;2023-11-22T13:28:52;7.13;;;5.53;;
45328;SDS011;72636;48.160;11.428;2023-11-22T13:31:19;8.68;;;5.28;;
45328;SDS011;72636;48.160;11.428;2023-11-22T13:33:46;5.78;;;5.00;;
45328;SDS011;72636;48.160;11.428;2023-11-22T13:36:12;7.57;;;5.80;;
45328;SDS011;72636;48.160;11.428;2023-11-22T13:41:05;7.03;;;4.72;;
45328;SDS011;72636;48.160;11.428;2023-11-22T13:43:30;10.00;;;5.05;;
45328;SDS011;72636;48.160;11.428;2023-11-22T13:45:58;5.28;;;3.85;;
45328;SDS011;72636;48.160;11.428;2023-11-22T13:48:23;5.93;;;4.45;;
45328;SDS011;72636;48.160;11.428;2023-11-22T13:53:16;5.80;;;4.82;;
45328;SDS011;72636;48.160;11.428;2023-11-22T13:55:46;8.15;;;4.78;;
45328;SDS011;72636;48.160;11.428;2023-11-22T13:58:11;6.27;;;4.70;;
45328;SDS011;72636;48.160;11.428;2023-11-22T14:00:38;4.75;;;4.25;;
45328;SDS011;72636;48.160;11.428;2023-11-22T14:03:04;10.95;;;5.65;;
45328;SDS011;72636;48.160;11.428;2023-11-22T14:05:31;5.20;;;4.70;;
45328;SDS011;72636;48.160;11.428;2023-11-22T14:07:59;5.93;;;5.05;;
45328;SDS011;72636;48.160;11.428;2023-11-22T14:10:25;8.00;;;5.40;;
45328;SDS011;72636;48.160;11.428;2023-11-22T14:12:51;8.50;;;5.38;;
45328;SDS011;72636;48.160;11.428;2023-11-22T14:15:17;7.63;;;6.00;;
45328;SDS011;72636;48.160;11.428;2023-11-22T14:17:44;8.93;;;5.28;;
45328;SDS011;72636;48.160;11.428;2023-11-22T14:20:10;6.10;;;5.50;;
45328;SDS011;72636;48.160;11.428;2023-11-22T14:25:04;5.53;;;4.63;;
45328;SDS011;72636;48.160;11.428;2023-11-22T14:27:36;7.70;;;5.93;;
45328;SDS011;72636;48.160;11.428;2023-11-22T14:30:03;8.85;;;5.53;;
45328;SDS011;72636;48.160;11.428;2023-11-22T14:32:32;5.95;;;4.90;;
45328;SDS011;72636;48.160;11.428;2023-11-22T14:35:02;7.15;;;4.85;;
45328;SDS011;72636;48.160;11.428;2023-11-22T14:37:29;7.78;;;5.20;;
45328;SDS011;72636;48.160;11.428;2023-11-22T14:39:55;8.25;;;5.18;;
45328;SDS011;72636;48.160;11.428;2023-11-22T14:42:21;9.48;;;5.57;;
45328;SDS011;72636;48.160;11.428;2023-11-22T14:44:48;7.93;;;5.82;;
45328;SDS011;72636;48.160;11.428;2023-11-22T14:47:13;12.17;;;5.77;;
45328;SDS011;72636;48.160;11.428;2023-11-22T14:49:44;9.60;;;5.40;;
45328;SDS011;72636;48.160;11.428;2023-11-22T14:52:10;10.17;;;6.30;;
45328;SDS011;72636;48.160;11.428;2023-11-22T14:54:36;5.90;;;5.10;;
45328;SDS011;72636;48.160;11.428;2023-11-22T14:57:02;9.02;;;6.57;;
45328;SDS011;72636;48.160;11.428;2023-11-22T14:59:28;8.90;;;5.80;;